createdAt,value
2018-04-16T00:01:50.140Z,29.13
2018-04-16T00:04:17.571Z,30.00
2018-04-16T00:06:44.977Z,31.40
2018-04-16T00:09:12.360Z,34.40
2018-04-16T00:11:39.751Z,35.27
2018-04-16T00:14:07.200Z,32.90
2018-04-16T00:16:34.562Z,34.80
2018-04-16T00:19:01.965Z,33.60
2018-04-16T00:21:29.389Z,33.50
2018-04-16T00:23:56.763Z,32.77
2018-04-16T00:26:24.134Z,32.60
2018-04-16T00:28:51.528Z,37.13
2018-04-16T00:31:18.973Z,34.70
2018-04-16T00:33:51.965Z,40.17
2018-04-16T00:36:34.236Z,40.73
2018-04-16T00:39:07.501Z,34.23
2018-04-16T00:41:40.578Z,34.03
2018-04-16T00:44:13.789Z,33.77
2018-04-16T00:46:46.967Z,35.30
2018-04-16T00:49:20.136Z,34.17
2018-04-16T00:51:53.452Z,39.33
2018-04-16T00:54:26.728Z,35.47
2018-04-16T00:56:59.802Z,37.93
2018-04-16T00:59:32.884Z,39.00
2018-04-16T01:02:20.165Z,37.70
2018-04-16T01:04:53.191Z,36.90
2018-04-16T01:07:26.280Z,38.13
2018-04-16T01:10:10.296Z,37.40
2018-04-16T01:12:43.440Z,39.37
2018-04-16T01:15:16.687Z,37.67
2018-04-16T01:17:49.744Z,39.10
2018-04-16T01:20:22.955Z,38.60
2018-04-16T01:22:55.991Z,41.43
2018-04-16T01:25:29.131Z,42.07
2018-04-16T01:28:02.184Z,40.80
2018-04-16T01:30:35.300Z,36.90
2018-04-16T01:33:08.455Z,43.17
2018-04-16T01:35:41.558Z,41.00
2018-04-16T01:38:14.634Z,40.57
2018-04-16T01:40:47.805Z,38.60
2018-04-16T01:43:20.822Z,45.30
2018-04-16T01:45:53.934Z,45.07
2018-04-16T01:48:27.079Z,41.80
2018-04-16T01:51:00.318Z,40.77
2018-04-16T01:53:33.411Z,41.97
2018-04-16T01:56:06.491Z,42.07
2018-04-16T01:58:39.551Z,40.10
2018-04-16T02:01:12.730Z,39.27
2018-04-16T02:03:45.710Z,38.13
2018-04-16T02:06:18.898Z,40.37
2018-04-16T02:08:52.166Z,42.07
2018-04-16T02:11:25.227Z,41.53
2018-04-16T02:13:58.363Z,39.73
2018-04-16T02:16:31.586Z,42.70
2018-04-16T02:19:04.600Z,40.77
2018-04-16T02:21:37.791Z,44.43
2018-04-16T02:24:10.952Z,39.73
2018-04-16T02:26:43.991Z,39.90
2018-04-16T02:29:17.141Z,43.37
2018-04-16T02:31:50.205Z,40.87
2018-04-16T02:34:23.467Z,41.60
2018-04-16T02:36:56.544Z,48.80
2018-04-16T02:39:29.727Z,43.90
2018-04-16T02:42:02.928Z,46.03
2018-04-16T02:44:35.937Z,50.30
2018-04-16T02:47:08.992Z,45.07
2018-04-16T02:49:42.116Z,43.80
2018-04-16T02:52:15.263Z,43.33
2018-04-16T02:54:48.339Z,44.77
2018-04-16T02:57:21.366Z,43.60
2018-04-16T02:59:54.752Z,41.17
2018-04-16T03:02:27.916Z,45.33
2018-04-16T03:05:00.994Z,44.80
2018-04-16T03:07:34.327Z,43.97
2018-04-16T03:10:07.519Z,43.13
2018-04-16T03:12:40.526Z,48.00
2018-04-16T03:15:13.655Z,46.00
2018-04-16T03:17:46.787Z,45.13
2018-04-16T03:20:19.964Z,45.03
2018-04-16T03:22:53.152Z,46.43
2018-04-16T03:25:26.160Z,41.93
2018-04-16T03:27:59.215Z,41.90
2018-04-16T03:30:32.332Z,42.57
2018-04-16T03:33:05.457Z,43.87
2018-04-16T03:35:38.699Z,45.13
2018-04-16T03:38:11.835Z,44.77
2018-04-16T03:40:44.935Z,47.30
2018-04-16T03:43:18.056Z,41.73
2018-04-16T03:45:51.181Z,39.63
2018-04-16T03:48:24.364Z,43.63
2018-04-16T03:50:57.509Z,42.53
2018-04-16T03:53:44.635Z,50.73
2018-04-16T03:56:12.672Z,42.17
2018-04-16T03:58:40.019Z,49.70
2018-04-16T04:01:07.441Z,51.27
2018-04-16T04:03:34.837Z,45.83
2018-04-16T04:06:02.273Z,48.80
2018-04-16T04:08:29.679Z,45.67
2018-04-16T04:10:57.052Z,47.70
2018-04-16T04:13:24.431Z,47.70
2018-04-16T04:15:51.897Z,46.17
2018-04-16T04:18:19.324Z,49.23
2018-04-16T04:20:46.774Z,53.70
2018-04-16T04:23:20.177Z,51.27
2018-04-16T04:25:53.446Z,51.87
2018-04-16T04:28:26.888Z,51.00
2018-04-16T04:30:54.271Z,55.00
2018-04-16T04:33:21.657Z,51.00
2018-04-16T04:35:49.040Z,49.30
2018-04-16T04:38:16.463Z,49.80
2018-04-16T04:40:43.824Z,49.37
2018-04-16T04:43:11.194Z,51.43
2018-04-16T04:45:38.726Z,51.10
2018-04-16T04:48:06.112Z,49.73
2018-04-16T04:50:33.495Z,48.87
2018-04-16T04:53:00.901Z,48.30
2018-04-16T04:55:28.288Z,49.90
2018-04-16T04:57:55.691Z,48.50
2018-04-16T05:00:23.121Z,46.83
2018-04-16T05:02:50.520Z,52.33
2018-04-16T05:05:17.970Z,49.30
2018-04-16T05:07:45.341Z,48.27
2018-04-16T05:10:12.747Z,46.53
2018-04-16T05:12:40.196Z,48.87
2018-04-16T05:15:07.583Z,48.10
2018-04-16T05:17:35.023Z,48.73
2018-04-16T05:20:02.379Z,48.70
2018-04-16T05:22:29.734Z,50.73
2018-04-16T05:24:57.143Z,52.37
2018-04-16T05:27:24.579Z,49.60
2018-04-16T05:29:51.954Z,50.90
2018-04-16T05:32:19.301Z,52.73
2018-04-16T05:34:46.733Z,52.53
2018-04-16T05:37:14.143Z,58.30
2018-04-16T05:39:41.498Z,53.27
2018-04-16T05:42:08.940Z,49.93
2018-04-16T05:44:36.341Z,50.10
2018-04-16T05:47:03.780Z,56.80
2018-04-16T05:49:31.171Z,51.80
2018-04-16T05:51:58.548Z,58.40
2018-04-16T05:54:25.940Z,52.57
2018-04-16T05:56:53.345Z,54.07
2018-04-16T05:59:20.686Z,54.97
2018-04-16T06:01:48.085Z,51.80
2018-04-16T06:04:15.503Z,60.97
2018-04-16T06:06:42.907Z,51.60
2018-04-16T06:09:10.312Z,55.30
2018-04-16T06:11:37.667Z,58.47
2018-04-16T06:14:05.079Z,57.97
2018-04-16T06:16:32.471Z,56.20
2018-04-16T06:18:59.896Z,57.17
2018-04-16T06:23:09.634Z,55.40
2018-04-16T06:25:37.025Z,53.73
2018-04-16T06:28:04.374Z,60.00
2018-04-16T06:30:31.746Z,64.17
2018-04-16T06:32:59.172Z,60.37
2018-04-16T06:35:26.560Z,59.90
2018-04-16T06:37:53.951Z,67.33
2018-04-16T06:40:21.355Z,58.33
2018-04-16T06:42:48.848Z,63.37
2018-04-16T06:45:16.335Z,61.07
2018-04-16T06:47:43.726Z,56.50
2018-04-16T06:50:11.110Z,59.40
2018-04-16T06:52:38.517Z,57.73
2018-04-16T06:55:05.926Z,63.70
2018-04-16T06:57:33.272Z,57.10
2018-04-16T07:00:00.774Z,59.63
2018-04-16T07:02:28.441Z,52.57
2018-04-16T07:04:55.869Z,59.67
2018-04-16T07:07:23.223Z,56.50
2018-04-16T07:09:50.587Z,59.30
2018-04-16T07:12:18.289Z,56.17
2018-04-16T07:14:45.662Z,55.60
2018-04-16T07:17:13.092Z,71.20
2018-04-16T07:19:40.557Z,68.07
2018-04-16T07:22:08.033Z,71.80
2018-04-16T07:24:35.449Z,74.37
2018-04-16T07:27:02.924Z,66.53
2018-04-16T07:29:30.318Z,65.17
2018-04-16T07:31:57.671Z,75.70
2018-04-16T07:34:25.093Z,72.63
2018-04-16T07:36:52.511Z,78.90
2018-04-16T07:39:19.886Z,68.77
2018-04-16T07:41:47.283Z,76.63
2018-04-16T07:44:14.627Z,76.73
2018-04-16T07:46:42.041Z,67.90
2018-04-16T07:49:09.439Z,79.83
2018-04-16T07:51:36.803Z,78.97
2018-04-16T07:54:04.154Z,75.07
2018-04-16T07:56:31.539Z,80.73
2018-04-16T07:58:58.898Z,73.30
2018-04-16T08:01:26.310Z,77.83
2018-04-16T08:03:53.763Z,81.57
2018-04-16T08:06:21.118Z,82.20
2018-04-16T08:08:48.475Z,79.53
2018-04-16T08:11:15.911Z,95.17
2018-04-16T08:13:43.270Z,79.80
2018-04-16T08:16:10.656Z,81.43
2018-04-16T08:18:38.059Z,80.60
2018-04-16T08:21:05.447Z,90.60
2018-04-16T08:23:32.839Z,88.87
2018-04-16T08:26:00.228Z,81.80
2018-04-16T08:28:27.791Z,84.43
2018-04-16T08:30:55.175Z,78.03
2018-04-16T08:33:22.567Z,72.43
2018-04-16T08:35:50.080Z,69.30
2018-04-16T08:38:17.526Z,71.03
2018-04-16T08:40:44.896Z,75.30
2018-04-16T08:43:12.243Z,71.90
2018-04-16T08:45:39.659Z,75.90
2018-04-16T08:48:07.073Z,66.60
2018-04-16T08:50:34.450Z,76.20
2018-04-16T08:53:01.869Z,68.30
2018-04-16T08:55:29.255Z,61.30
2018-04-16T08:57:56.638Z,63.53
2018-04-16T09:00:24.063Z,58.97
2018-04-16T09:02:51.444Z,68.43
2018-04-16T09:05:18.876Z,61.20
2018-04-16T09:07:46.305Z,68.00
2018-04-16T09:10:13.691Z,62.17
2018-04-16T09:12:41.084Z,56.47
2018-04-16T09:15:08.515Z,61.80
2018-04-16T09:17:35.899Z,55.53
2018-04-16T09:20:03.262Z,67.30
2018-04-16T09:22:30.684Z,61.20
2018-04-16T09:24:58.036Z,55.80
2018-04-16T09:27:25.419Z,58.00
2018-04-16T09:29:52.859Z,59.37
2018-04-16T09:32:20.247Z,58.50
2018-04-16T09:34:47.646Z,62.57
2018-04-16T09:37:15.076Z,59.13
2018-04-16T09:39:42.446Z,62.07
2018-04-16T09:42:09.821Z,59.83
2018-04-16T09:44:37.370Z,62.40
2018-04-16T09:47:04.718Z,63.40
2018-04-16T09:49:32.144Z,60.60
2018-04-16T09:51:59.555Z,62.07
2018-04-16T09:54:26.984Z,59.07
2018-04-16T09:56:54.408Z,59.57
2018-04-16T09:59:21.915Z,54.40
2018-04-16T10:01:49.990Z,53.63
2018-04-16T10:04:17.391Z,55.90
2018-04-16T10:06:44.774Z,53.60
2018-04-16T10:09:12.528Z,52.73
2018-04-16T10:11:39.915Z,50.50
2018-04-16T10:14:07.337Z,49.80
2018-04-16T10:16:34.748Z,51.43
2018-04-16T10:19:02.092Z,55.27
2018-04-16T10:21:29.480Z,52.07
2018-04-16T10:23:56.878Z,48.87
2018-04-16T10:26:24.239Z,52.63
2018-04-16T10:28:51.590Z,50.47
2018-04-16T10:31:19.040Z,50.83
2018-04-16T10:33:46.469Z,47.60
2018-04-16T10:36:13.851Z,53.50
2018-04-16T10:38:41.259Z,53.43
2018-04-16T10:41:08.668Z,47.23
2018-04-16T10:43:36.040Z,47.40
2018-04-16T10:46:03.471Z,47.33
2018-04-16T10:48:30.882Z,48.73
2018-04-16T10:50:58.270Z,43.77
2018-04-16T10:53:25.665Z,46.50
2018-04-16T10:55:53.027Z,45.00
2018-04-16T10:58:20.408Z,45.63
2018-04-16T11:00:47.790Z,47.00
2018-04-16T11:03:15.145Z,40.67
2018-04-16T11:05:42.579Z,47.93
2018-04-16T11:08:10.003Z,39.73
2018-04-16T11:10:37.384Z,40.97
2018-04-16T11:13:04.784Z,41.57
2018-04-16T11:15:32.211Z,46.07
2018-04-16T11:17:59.635Z,36.70
2018-04-16T11:20:26.986Z,41.50
2018-04-16T11:22:54.404Z,43.27
2018-04-16T11:25:21.770Z,47.10
2018-04-16T11:27:49.148Z,42.00
2018-04-16T11:30:16.576Z,39.13
2018-04-16T11:32:43.947Z,35.43
2018-04-16T11:35:11.351Z,38.97
2018-04-16T11:37:38.767Z,41.60
2018-04-16T11:40:06.207Z,41.90
2018-04-16T11:42:33.591Z,41.00
2018-04-16T11:45:01.019Z,35.03
2018-04-16T11:47:28.394Z,38.23
2018-04-16T11:49:55.772Z,34.70
2018-04-16T11:52:23.190Z,36.83
2018-04-16T11:54:50.551Z,35.60
2018-04-16T11:57:17.915Z,36.30
2018-04-16T11:59:45.341Z,34.20
2018-04-16T12:02:12.754Z,32.03
2018-04-16T12:04:40.210Z,30.37
2018-04-16T12:07:07.704Z,27.90
2018-04-16T12:09:35.054Z,27.50
2018-04-16T12:12:02.428Z,27.07
2018-04-16T12:14:29.864Z,26.20
2018-04-16T12:16:57.249Z,28.93
2018-04-16T12:19:24.599Z,25.80
2018-04-16T12:21:51.995Z,27.70
2018-04-16T12:24:19.384Z,30.03
2018-04-16T12:26:46.739Z,24.27
2018-04-16T12:29:14.119Z,29.90
2018-04-16T12:31:41.500Z,28.20
2018-04-16T12:34:08.920Z,27.07
2018-04-16T12:36:36.350Z,25.13
2018-04-16T12:39:03.868Z,32.83
2018-04-16T12:41:31.206Z,24.80
2018-04-16T12:43:58.577Z,26.73
2018-04-16T12:46:25.931Z,25.43
2018-04-16T12:48:53.306Z,26.70
2018-04-16T12:51:20.781Z,32.63
2018-04-16T12:53:48.139Z,26.60
2018-04-16T12:56:15.659Z,36.17
2018-04-16T12:58:43.011Z,30.17
2018-04-16T13:01:10.396Z,38.77
2018-04-16T13:03:37.799Z,38.47
2018-04-16T13:06:05.184Z,39.33
2018-04-16T13:08:32.542Z,33.60
2018-04-16T13:10:59.946Z,34.00
2018-04-16T13:13:27.293Z,35.77
2018-04-16T13:15:54.669Z,31.90
2018-04-16T13:18:22.092Z,33.13
2018-04-16T13:20:49.442Z,33.87
2018-04-16T13:23:16.820Z,34.47
2018-04-16T13:25:44.248Z,33.20
2018-04-16T13:28:11.615Z,32.00
2018-04-16T13:30:39.012Z,34.47
2018-04-16T13:33:06.410Z,30.00
2018-04-16T13:35:33.796Z,27.50
2018-04-16T13:38:01.160Z,26.93
2018-04-16T13:40:28.565Z,30.13
2018-04-16T13:42:55.919Z,27.20
2018-04-16T13:45:23.411Z,29.17
2018-04-16T13:47:50.809Z,27.00
2018-04-16T13:50:18.167Z,24.77
2018-04-16T13:52:45.584Z,28.60
2018-04-16T13:55:12.995Z,31.50
2018-04-16T13:57:40.433Z,31.80
2018-04-16T14:00:07.818Z,34.87
2018-04-16T14:02:35.177Z,33.90
2018-04-16T14:05:02.604Z,35.90
2018-04-16T14:07:29.969Z,40.80
2018-04-16T14:09:57.367Z,36.17
2018-04-16T14:12:24.774Z,35.53
2018-04-16T14:14:52.124Z,34.33
2018-04-16T14:17:19.504Z,37.37
2018-04-16T14:19:46.907Z,35.17
2018-04-16T14:22:14.294Z,35.87
2018-04-16T14:24:41.713Z,36.13
2018-04-16T14:27:09.099Z,35.83
2018-04-16T14:29:36.523Z,33.77
2018-04-16T14:32:03.875Z,32.70
2018-04-16T14:34:31.258Z,36.60
2018-04-16T14:36:58.644Z,38.53
2018-04-16T14:39:26.029Z,39.10
2018-04-16T14:41:53.453Z,42.20
2018-04-16T14:44:20.945Z,46.10
2018-04-16T14:46:48.300Z,47.43
2018-04-16T14:49:15.724Z,44.20
2018-04-16T14:51:43.090Z,47.40
2018-04-16T14:54:10.488Z,51.90
2018-04-16T14:56:38.026Z,61.70
2018-04-16T14:59:05.432Z,49.33
2018-04-16T15:01:32.860Z,51.20
2018-04-16T15:04:00.280Z,54.30
2018-04-16T15:06:27.693Z,57.80
2018-04-16T15:08:55.055Z,58.20
2018-04-16T15:11:22.436Z,52.27
2018-04-16T15:13:49.860Z,57.77
2018-04-16T15:16:17.296Z,65.43
2018-04-16T15:18:44.681Z,56.90
2018-04-16T15:21:12.063Z,59.17
2018-04-16T15:23:39.497Z,59.80
2018-04-16T15:26:06.853Z,64.03
2018-04-16T15:28:34.233Z,61.93
2018-04-16T15:31:01.649Z,65.90
2018-04-16T15:33:29.017Z,68.53
2018-04-16T15:35:56.401Z,67.10
2018-04-16T15:38:23.795Z,65.33
2018-04-16T15:40:51.142Z,68.37
2018-04-16T15:43:18.520Z,74.07
2018-04-16T15:45:45.901Z,73.70
2018-04-16T15:48:13.267Z,81.10
2018-04-16T15:50:40.676Z,74.10
2018-04-16T15:53:08.038Z,77.20
2018-04-16T15:55:35.439Z,72.70
2018-04-16T15:58:03.534Z,79.40
2018-04-16T16:00:30.919Z,78.90
2018-04-16T16:02:58.309Z,80.70
2018-04-16T16:05:25.843Z,79.30
2018-04-16T16:07:53.228Z,72.90
2018-04-16T16:10:20.602Z,75.00
2018-04-16T16:12:48.012Z,77.17
2018-04-16T16:15:15.405Z,81.40
2018-04-16T16:17:42.755Z,82.90
2018-04-16T16:20:10.159Z,79.17
2018-04-16T16:22:37.521Z,81.80
2018-04-16T16:25:04.908Z,84.10
2018-04-16T16:27:32.344Z,78.40
2018-04-16T16:29:59.712Z,82.23
2018-04-16T16:32:27.136Z,82.10
2018-04-16T16:34:54.558Z,87.63
2018-04-16T16:37:21.952Z,73.47
2018-04-16T16:39:49.308Z,73.10
2018-04-16T16:42:16.700Z,83.90
2018-04-16T16:44:44.144Z,82.27
2018-04-16T16:47:11.649Z,84.33
2018-04-16T16:49:39.005Z,78.70
2018-04-16T16:52:06.398Z,84.57
2018-04-16T16:54:33.784Z,87.20
2018-04-16T16:57:01.177Z,85.47
2018-04-16T16:59:28.612Z,82.53
2018-04-16T17:01:56.024Z,79.47
2018-04-16T17:04:23.407Z,88.80
2018-04-16T17:06:50.886Z,85.63
2018-04-16T17:09:18.269Z,85.57
2018-04-16T17:11:45.653Z,77.93
2018-04-16T17:14:13.050Z,83.43
2018-04-16T17:16:40.549Z,88.70
2018-04-16T17:19:07.934Z,80.60
2018-04-16T17:21:35.327Z,84.13
2018-04-16T17:24:02.693Z,85.53
2018-04-16T17:26:30.133Z,93.33
2018-04-16T17:28:57.509Z,87.13
2018-04-16T17:31:25.056Z,91.37
2018-04-16T17:33:52.519Z,86.33
2018-04-16T17:36:19.926Z,94.13
2018-04-16T17:38:47.342Z,86.87
2018-04-16T17:41:14.812Z,91.73
2018-04-16T17:43:42.182Z,103.00
2018-04-16T17:46:09.570Z,87.00
2018-04-16T17:48:36.952Z,92.93
2018-04-16T17:51:04.340Z,96.27
2018-04-16T17:53:31.764Z,89.93
2018-04-16T17:55:59.149Z,91.27
2018-04-16T17:58:26.506Z,94.17
2018-04-16T18:00:53.915Z,94.53
2018-04-16T18:03:21.304Z,96.03
2018-04-16T18:05:48.688Z,98.80
2018-04-16T18:08:16.138Z,96.13
2018-04-16T18:10:43.520Z,89.97
2018-04-16T18:13:10.923Z,94.73
2018-04-16T18:15:38.342Z,105.47
2018-04-16T18:18:05.791Z,92.47
2018-04-16T18:20:33.304Z,95.33
2018-04-16T18:23:00.836Z,99.60
2018-04-16T18:25:28.224Z,101.43
2018-04-16T18:27:55.667Z,97.20
2018-04-16T18:30:23.109Z,87.70
2018-04-16T18:32:50.607Z,97.90
2018-04-16T18:35:17.942Z,89.40
2018-04-16T18:37:45.520Z,89.73
2018-04-16T18:40:12.999Z,98.30
2018-04-16T18:42:40.420Z,90.77
2018-04-16T18:45:07.807Z,89.67
2018-04-16T18:47:35.223Z,92.80
2018-04-16T18:50:02.692Z,91.30
2018-04-16T18:52:30.143Z,85.93
2018-04-16T18:54:57.677Z,88.20
2018-04-16T18:57:25.027Z,87.63
2018-04-16T18:59:52.399Z,79.63
2018-04-16T19:02:19.808Z,89.80
2018-04-16T19:04:47.224Z,84.40
2018-04-16T19:07:14.712Z,87.97
2018-04-16T19:09:42.077Z,84.17
2018-04-16T19:12:09.586Z,91.30
2018-04-16T19:14:37.007Z,87.40
2018-04-16T19:17:04.823Z,91.27
2018-04-16T19:19:32.187Z,92.33
2018-04-16T19:21:59.604Z,87.63
2018-04-16T19:24:27.003Z,91.90
2018-04-16T19:27:00.090Z,92.43
2018-04-16T19:29:27.597Z,91.53
2018-04-16T19:31:55.046Z,91.73
2018-04-16T19:34:28.258Z,83.83
2018-04-16T19:36:55.701Z,93.20
2018-04-16T19:39:23.169Z,91.17
2018-04-16T19:41:56.246Z,85.73
2018-04-16T19:44:23.723Z,93.03
2018-04-16T19:46:51.436Z,90.20
2018-04-16T19:49:24.800Z,90.87
2018-04-16T19:51:52.394Z,88.07
2018-04-16T19:54:19.914Z,82.60
2018-04-16T19:56:53.202Z,85.20
2018-04-16T19:59:20.690Z,88.40
2018-04-16T20:01:53.796Z,85.13
2018-04-16T20:04:21.231Z,84.00
2018-04-16T20:06:48.663Z,92.07
2018-04-16T20:09:16.115Z,90.33
2018-04-16T20:11:43.499Z,79.63
2018-04-16T20:14:10.898Z,78.53
2018-04-16T20:16:38.363Z,75.47
2018-04-16T20:19:05.719Z,68.73
2018-04-16T20:21:33.075Z,72.00
2018-04-16T20:24:00.559Z,71.10
2018-04-16T20:26:27.967Z,67.63
2018-04-16T20:28:55.350Z,67.20
2018-04-16T20:31:22.883Z,63.37
2018-04-16T20:33:50.264Z,60.67
2018-04-16T20:36:17.644Z,68.97
2018-04-16T20:38:45.022Z,60.57
2018-04-16T20:41:12.402Z,69.57
2018-04-16T20:43:39.910Z,63.57
2018-04-16T20:46:07.258Z,64.27
2018-04-16T20:48:34.658Z,63.43
2018-04-16T20:51:02.043Z,60.70
2018-04-16T20:53:29.448Z,61.93
2018-04-16T20:55:56.979Z,66.73
2018-04-16T20:58:24.333Z,67.17
2018-04-16T21:00:51.715Z,55.87
2018-04-16T21:03:19.120Z,66.00
2018-04-16T21:05:46.512Z,64.53
2018-04-16T21:08:13.899Z,63.37
2018-04-16T21:10:41.279Z,78.40
2018-04-16T21:13:08.640Z,70.60
2018-04-16T21:15:36.008Z,64.03
2018-04-16T21:18:03.362Z,71.30
2018-04-16T21:20:30.733Z,70.40
2018-04-16T21:22:58.147Z,72.20
2018-04-16T21:25:25.508Z,81.37
2018-04-16T21:27:52.854Z,75.03
2018-04-16T21:30:20.271Z,78.43
2018-04-16T21:32:47.662Z,84.67
2018-04-16T21:35:15.079Z,85.07
2018-04-16T21:37:42.475Z,83.50
2018-04-16T21:40:09.851Z,88.43
2018-04-16T21:42:37.268Z,84.57
2018-04-16T21:45:04.706Z,86.37
2018-04-16T21:47:32.063Z,85.87
2018-04-16T21:49:59.435Z,93.47
2018-04-16T21:52:26.810Z,92.77
2018-04-16T21:54:54.196Z,92.27
2018-04-16T21:57:21.600Z,92.03
2018-04-16T21:59:48.962Z,90.77
2018-04-16T22:02:16.316Z,91.87
2018-04-16T22:04:43.728Z,90.80
2018-04-16T22:07:11.116Z,94.87
2018-04-16T22:09:38.483Z,95.23
2018-04-16T22:12:05.898Z,96.43
2018-04-16T22:14:33.294Z,99.13
2018-04-16T22:17:00.655Z,98.90
2018-04-16T22:19:28.129Z,95.27
2018-04-16T22:21:55.558Z,92.63
2018-04-16T22:24:22.971Z,98.70
2018-04-16T22:26:50.382Z,102.80
2018-04-16T22:29:17.816Z,103.20
2018-04-16T22:31:45.211Z,99.17
2018-04-16T22:34:12.600Z,99.90
2018-04-16T22:36:40.442Z,109.37
2018-04-16T22:39:07.835Z,99.53
2018-04-16T22:41:35.242Z,100.73
2018-04-16T22:44:02.622Z,93.50
2018-04-16T22:46:29.974Z,99.13
2018-04-16T22:48:57.384Z,94.87
2018-04-16T22:51:24.771Z,98.83
2018-04-16T22:53:52.122Z,97.67
2018-04-16T22:56:19.515Z,98.83
2018-04-16T22:58:46.932Z,101.20
2018-04-16T23:01:14.512Z,101.63
2018-04-16T23:03:41.867Z,105.90
2018-04-16T23:06:09.218Z,103.10
2018-04-16T23:08:36.634Z,97.03
2018-04-16T23:11:03.989Z,109.57
2018-04-16T23:13:31.381Z,100.57
2018-04-16T23:15:58.876Z,105.63
2018-04-16T23:18:26.260Z,106.23
2018-04-16T23:20:53.657Z,101.87
2018-04-16T23:23:21.027Z,98.13
2018-04-16T23:25:48.408Z,96.53
2018-04-16T23:28:15.838Z,101.93
2018-04-16T23:30:43.269Z,103.03
2018-04-16T23:33:10.656Z,88.33
2018-04-16T23:35:38.010Z,103.70
2018-04-16T23:38:05.453Z,92.27
2018-04-16T23:40:32.818Z,97.57
2018-04-16T23:43:00.179Z,85.63
2018-04-16T23:45:27.615Z,84.30
2018-04-16T23:47:54.996Z,82.13
2018-04-16T23:50:22.439Z,82.70
2018-04-16T23:52:49.823Z,81.77
2018-04-16T23:55:17.224Z,84.97
2018-04-16T23:57:44.620Z,86.63
